Time;durP1;ratioP1;P1;durP2;ratioP2;P2;SDS_P1;SDS_P2;PMS_P1;PMS_P2;Temp;Humidity;BMP_temperature;BMP_pressure;BME280_temperature;BME280_humidity;BME280_pressure;Samples;Min_cycle;Max_cycle;Signal;HPM_P1;HPM_P2
2021/09/25 07:49:54;;;;;;;6.22;3.20;;;23.00;99.90;;;;;;3595698;23;20232;-71
2021/09/25 07:52:21;;;;;;;4.85;2.97;;;23.20;99.90;;;;;;4935961;29;20683;-71
2021/09/25 07:54:48;;;;;;;4.57;3.10;;;23.30;99.90;;;;;;4936866;29;20212;-70
2021/09/25 07:57:14;;;;;;;5.68;3.13;;;23.50;99.90;;;;;;4936493;29;20252;-71
2021/09/25 07:59:41;;;;;;;4.45;2.60;;;23.70;99.90;;;;;;4936676;29;20219;-71
2021/09/25 08:02:08;;;;;;;4.18;2.65;;;23.60;99.90;;;;;;4936374;29;20208;-71
2021/09/25 08:04:35;;;;;;;5.20;2.88;;;23.70;99.90;;;;;;4936074;29;20216;-71
2021/09/25 08:07:03;;;;;;;5.43;3.20;;;23.70;99.90;;;;;;4929195;29;20236;-73
2021/09/25 08:09:30;;;;;;;4.35;2.50;;;23.60;99.90;;;;;;4935081;29;20243;-77
2021/09/25 08:11:57;;;;;;;3.95;2.50;;;23.60;99.90;;;;;;4936704;29;20715;-74
2021/09/25 08:14:24;;;;;;;4.63;2.72;;;23.50;99.90;;;;;;4953804;29;20211;-76
2021/09/25 08:16:51;;;;;;;4.72;2.80;;;23.80;99.90;;;;;;4944359;29;20341;-74
2021/09/25 08:19:18;;;;;;;3.78;2.47;;;23.80;99.90;;;;;;4916177;29;20213;-74
2021/09/25 08:21:46;;;;;;;5.78;3.08;;;23.60;99.90;;;;;;4916027;29;20205;-74
2021/09/25 08:24:14;;;;;;;4.72;2.60;;;23.70;99.90;;;;;;4915627;29;20696;-78
2021/09/25 08:26:41;;;;;;;4.25;2.80;;;23.70;99.90;;;;;;4915667;29;20233;-76
2021/09/25 08:29:08;;;;;;;4.03;2.10;;;23.30;99.90;;;;;;4915299;29;20224;-78
2021/09/25 08:31:35;;;;;;;3.78;2.25;;;23.10;99.90;;;;;;4915947;29;20209;-74
2021/09/25 08:34:02;;;;;;;5.85;2.20;;;23.20;99.90;;;;;;4916053;29;20210;-77
2021/09/25 08:36:29;;;;;;;4.13;2.05;;;23.10;99.90;;;;;;4914851;29;20205;-76
2021/09/25 08:38:56;;;;;;;4.32;2.20;;;23.00;99.90;;;;;;4940195;29;20231;-80
2021/09/25 08:41:25;;;;;;;3.03;2.00;;;23.20;99.90;;;;;;4952809;29;20311;-73
2021/09/25 08:43:51;;;;;;;3.17;1.80;;;23.20;99.90;;;;;;4952954;29;20765;-73
2021/09/25 08:46:18;;;;;;;2.63;1.80;;;23.10;99.90;;;;;;4952152;29;20219;-75
2021/09/25 08:48:45;;;;;;;3.75;2.28;;;23.10;99.90;;;;;;4916058;29;20245;-75
2021/09/25 08:51:12;;;;;;;4.22;2.22;;;23.20;99.90;;;;;;4914644;29;20703;-77
2021/09/25 08:53:39;;;;;;;3.03;1.83;;;23.10;99.90;;;;;;4915453;29;20202;-75
2021/09/25 08:56:06;;;;;;;4.03;2.00;;;23.20;99.90;;;;;;4915541;29;20205;-76
2021/09/25 08:58:34;;;;;;;3.00;2.00;;;23.00;99.90;;;;;;4914096;29;20249;-78
2021/09/25 09:01:01;;;;;;;4.20;2.33;;;23.30;99.90;;;;;;4915409;29;20574;-82
2021/09/25 09:03:31;;;;;;;3.17;1.88;;;23.00;99.90;;;;;;4916491;29;20600;-76
2021/09/25 09:06:10;;;;;;;4.75;2.30;;;23.00;99.90;;;;;;4914823;29;20209;-78
2021/09/25 09:08:39;;;;;;;3.40;2.10;;;23.20;99.90;;;;;;4915203;29;20233;-73
2021/09/25 09:11:06;;;;;;;4.25;2.30;;;23.30;99.90;;;;;;4915510;29;20220;-76
2021/09/25 09:13:35;;;;;;;4.15;2.47;;;23.20;99.90;;;;;;4914602;29;20208;-76
2021/09/25 09:16:05;;;;;;;3.97;2.22;;;22.60;99.90;;;;;;4928789;29;20259;-78
2021/09/25 09:18:32;;;;;;;5.13;2.50;;;22.50;99.90;;;;;;4917669;29;20237;-76
2021/09/25 09:21:05;;;;;;;2.90;1.77;;;22.50;99.90;;;;;;4914861;29;20312;-73
2021/09/25 09:23:34;;;;;;;3.97;1.88;;;22.30;99.90;;;;;;4918120;29;20217;-76
2021/09/25 09:26:01;;;;;;;5.72;2.53;;;22.00;99.90;;;;;;4915625;29;20213;-75
2021/09/25 09:28:31;;;;;;;2.92;2.28;;;21.80;99.90;;;;;;4915209;29;20229;-73
2021/09/25 09:31:01;;;;;;;3.70;2.10;;;21.60;99.90;;;;;;4918109;29;20209;-75
2021/09/25 09:33:33;;;;;;;3.38;1.67;;;21.60;99.90;;;;;;4914985;29;20300;-75
2021/09/25 09:36:21;;;;;;;4.22;1.92;;;21.60;99.90;;;;;;4914626;29;20221;-73
2021/09/25 09:38:53;;;;;;;4.28;2.00;;;21.40;99.90;;;;;;4915395;29;20237;-74
2021/09/25 09:41:23;;;;;;;2.65;1.80;;;21.40;99.90;;;;;;4916035;29;20261;-72
2021/09/25 09:43:51;;;;;;;3.60;2.10;;;21.50;99.90;;;;;;4915267;29;20210;-73
2021/09/25 09:46:21;;;;;;;4.40;2.15;;;21.50;99.90;;;;;;4916552;29;20222;-76
2021/09/25 09:48:48;;;;;;;3.67;2.05;;;21.40;99.90;;;;;;4918559;29;20308;-78
2021/09/25 09:51:15;;;;;;;3.20;2.20;;;21.30;99.90;;;;;;4914509;29;20225;-76
2021/09/25 09:53:45;;;;;;;5.80;2.22;;;21.40;99.90;;;;;;4917664;29;20304;-73
2021/09/25 09:56:25;;;;;;;2.88;1.90;;;21.50;99.90;;;;;;4924393;29;20220;-76
2021/09/25 09:59:04;;;;;;;3.72;2.00;;;21.50;99.90;;;;;;4923644;29;20324;-76
2021/09/25 10:01:32;;;;;;;2.70;1.50;;;21.40;99.90;;;;;;4916444;29;20244;-75
2021/09/25 10:04:02;;;;;;;5.97;1.75;;;21.40;99.90;;;;;;4916623;29;20213;-77
2021/09/25 10:06:29;;;;;;;3.25;1.92;;;21.40;99.90;;;;;;4915438;29;20244;-76
2021/09/25 10:08:56;;;;;;;3.88;1.80;;;21.50;99.90;;;;;;4915286;29;20573;-75
2021/09/25 10:11:24;;;;;;;3.13;2.00;;;21.50;99.90;;;;;;4917848;29;20237;-74
2021/09/25 10:13:52;;;;;;;3.92;2.03;;;21.40;99.90;;;;;;4918106;29;20309;-69
2021/09/25 10:16:19;;;;;;;3.78;1.80;;;21.40;99.90;;;;;;4919449;29;20275;-69
2021/09/25 10:18:50;;;;;;;3.65;1.88;;;21.40;99.90;;;;;;4919264;29;20700;-69
2021/09/25 10:21:17;;;;;;;4.43;1.83;;;21.50;99.90;;;;;;4919324;29;20213;-70
2021/09/25 10:23:50;;;;;;;3.63;1.92;;;21.50;99.90;;;;;;4919344;29;20210;-70
2021/09/25 10:26:18;;;;;;;2.35;1.65;;;21.40;99.90;;;;;;4919200;29;20217;-70
2021/09/25 10:28:54;;;;;;;2.45;1.65;;;21.60;99.90;;;;;;4919649;29;20210;-69
2021/09/25 10:31:21;;;;;;;3.55;1.40;;;21.50;99.90;;;;;;4919272;29;20209;-70
2021/09/25 10:34:07;;;;;;;2.30;1.55;;;21.60;99.90;;;;;;4919652;29;20232;-69
2021/09/25 10:36:37;;;;;;;2.10;1.65;;;21.60;99.90;;;;;;4919404;29;20233;-70
2021/09/25 10:39:17;;;;;;;2.20;1.58;;;21.70;99.90;;;;;;4919202;29;20241;-69
2021/09/25 10:41:45;;;;;;;3.42;2.13;;;21.80;99.90;;;;;;4919110;29;20215;-70
2021/09/25 10:44:24;;;;;;;1.90;1.55;;;22.00;99.90;;;;;;4918729;29;20661;-70
2021/09/25 10:46:51;;;;;;;3.03;1.92;;;21.90;99.90;;;;;;4918880;29;20235;-70
2021/09/25 10:49:19;;;;;;;3.80;1.48;;;22.10;99.90;;;;;;4918707;29;20660;-70
2021/09/25 10:51:47;;;;;;;1.75;1.27;;;22.10;99.90;;;;;;4918699;29;20217;-70
2021/09/25 10:54:14;;;;;;;2.40;1.55;;;22.20;99.90;;;;;;4918629;29;20214;-69
2021/09/25 10:56:47;;;;;;;2.60;1.40;;;22.20;99.90;;;;;;4918834;29;20225;-70
2021/09/25 10:59:14;;;;;;;2.10;1.33;;;22.20;99.90;;;;;;4918441;29;20470;-69
2021/09/25 11:01:42;;;;;;;3.50;1.50;;;22.10;99.90;;;;;;4918739;29;20210;-69
2021/09/25 11:04:12;;;;;;;2.05;1.38;;;22.00;99.90;;;;;;4918939;29;20210;-70
2021/09/25 11:06:43;;;;;;;1.95;1.20;;;22.00;99.90;;;;;;4918534;29;20233;-70
2021/09/25 11:09:18;;;;;;;2.60;1.33;;;21.90;99.90;;;;;;4918685;29;20265;-69
2021/09/25 11:11:51;;;;;;;2.70;1.67;;;21.90;99.90;;;;;;4918426;29;20210;-70
2021/09/25 11:14:26;;;;;;;2.03;1.55;;;21.90;99.90;;;;;;4918407;29;20292;-70
2021/09/25 11:17:10;;;;;;;1.73;1.30;;;22.00;99.90;;;;;;4917650;29;20320;-69
2021/09/25 11:19:46;;;;;;;2.15;1.50;;;21.90;99.90;;;;;;4918249;29;20241;-70
2021/09/25 11:22:18;;;;;;;1.63;1.20;;;22.00;99.90;;;;;;4917610;29;20296;-70
2021/09/25 11:24:48;;;;;;;1.95;1.30;;;22.10;99.90;;;;;;4918236;29;20286;-70
2021/09/25 11:27:17;;;;;;;2.35;1.30;;;22.20;99.90;;;;;;4918249;29;20234;-69
2021/09/25 11:29:55;;;;;;;1.80;1.27;;;22.30;99.90;;;;;;4918384;29;20210;-70
2021/09/25 11:32:27;;;;;;;2.08;1.13;;;22.30;99.90;;;;;;4917974;29;20661;-70
2021/09/25 11:34:54;;;;;;;2.70;1.35;;;21.90;99.90;;;;;;4918196;29;20205;-69
2021/09/25 11:37:23;;;;;;;1.90;1.33;;;21.80;99.90;;;;;;4918021;29;20253;-68
2021/09/25 11:39:51;;;;;;;2.10;1.40;;;21.90;99.90;;;;;;4918130;29;20334;-70
2021/09/25 11:42:21;;;;;;;2.10;1.52;;;22.00;99.90;;;;;;4918110;29;20387;-70
2021/09/25 11:44:52;;;;;;;2.50;1.50;;;22.00;99.90;;;;;;4917799;29;20209;-70
2021/09/25 11:47:32;;;;;;;2.25;1.42;;;22.10;99.90;;;;;;4917761;29;20704;-69
2021/09/25 11:50:02;;;;;;;1.88;1.27;;;22.30;99.90;;;;;;4909681;29;20662;-74
2021/09/25 11:52:36;;;;;;;2.17;1.38;;;22.30;99.90;;;;;;4934722;29;20216;-75
2021/09/25 11:55:03;;;;;;;1.90;1.40;;;22.40;99.90;;;;;;4935296;29;20666;-72
2021/09/25 11:57:30;;;;;;;1.65;1.35;;;22.60;99.90;;;;;;4934562;29;20583;-75
2021/09/25 11:59:57;;;;;;;1.60;1.17;;;22.70;99.90;;;;;;4932708;29;20244;-74
2021/09/25 12:02:41;;;;;;;2.22;1.50;;;22.30;99.90;;;;;;4916466;29;20209;-76
2021/09/25 12:05:10;;;;;;;2.70;1.70;;;22.00;99.90;;;;;;4915760;29;20213;-73
2021/09/25 12:07:43;;;;;;;1.92;1.40;;;22.00;99.90;;;;;;4912019;29;20901;-73
2021/09/25 12:10:18;;;;;;;2.38;1.30;;;21.80;99.90;;;;;;4916424;29;20288;-70
2021/09/25 12:12:45;;;;;;;2.85;1.40;;;21.90;99.90;;;;;;4917719;29;20213;-70
2021/09/25 12:15:12;;;;;;;2.60;1.15;;;21.90;99.90;;;;;;4917263;29;20557;-70
2021/09/25 12:17:39;;;;;;;1.40;1.00;;;21.70;99.90;;;;;;4917136;29;20735;-70
2021/09/25 12:20:17;;;;;;;2.42;1.50;;;21.90;99.90;;;;;;4917258;29;20597;-70
2021/09/25 12:22:45;;;;;;;1.67;1.17;;;22.10;99.90;;;;;;4917006;29;20205;-70
2021/09/25 12:25:13;;;;;;;2.22;1.42;;;22.20;99.90;;;;;;4917066;29;20218;-71
2021/09/25 12:27:41;;;;;;;2.15;1.30;;;22.30;99.90;;;;;;4916897;29;20695;-70
2021/09/25 12:30:10;;;;;;;2.50;1.50;;;22.40;99.90;;;;;;4917306;29;20213;-70
2021/09/25 12:32:37;;;;;;;3.67;1.90;;;22.50;99.90;;;;;;4917354;29;20214;-70
2021/09/25 12:35:17;;;;;;;1.92;1.70;;;22.50;99.90;;;;;;4916443;29;20265;-70
2021/09/25 12:37:49;;;;;;;2.65;1.65;;;22.50;99.90;;;;;;4917388;29;20236;-70
2021/09/25 12:40:16;;;;;;;2.40;1.67;;;22.40;99.90;;;;;;4917433;29;20289;-70
2021/09/25 12:42:42;;;;;;;2.17;1.58;;;22.60;99.90;;;;;;4916981;29;20209;-71
2021/09/25 12:45:12;;;;;;;3.40;2.00;;;22.60;99.90;;;;;;4916894;29;20213;-70
2021/09/25 12:47:41;;;;;;;3.58;1.40;;;22.80;99.90;;;;;;4916428;29;20725;-71
2021/09/25 12:50:23;;;;;;;2.35;1.50;;;22.90;99.90;;;;;;4916984;29;20252;-70
2021/09/25 12:52:59;;;;;;;1.92;1.40;;;22.90;99.90;;;;;;4916832;29;20213;-70
2021/09/25 12:55:27;;;;;;;3.53;1.60;;;22.90;99.90;;;;;;4916859;29;20215;-70
2021/09/25 12:57:58;;;;;;;2.08;1.20;;;22.80;99.90;;;;;;4916591;29;20230;-70
2021/09/25 13:00:27;;;;;;;2.35;1.58;;;22.70;99.90;;;;;;4916842;29;20241;-70
2021/09/25 13:02:56;;;;;;;2.00;1.20;;;22.60;99.90;;;;;;4916815;29;20210;-70
2021/09/25 13:05:24;;;;;;;1.92;1.20;;;22.50;99.90;;;;;;4916855;29;20257;-70
2021/09/25 13:07:51;;;;;;;2.55;1.30;;;22.50;99.90;;;;;;4916584;29;20237;-70
2021/09/25 13:10:21;;;;;;;2.85;1.40;;;22.40;99.90;;;;;;4916516;29;20205;-71
2021/09/25 13:12:50;;;;;;;3.22;1.20;;;22.40;99.90;;;;;;4916411;29;20269;-70
2021/09/25 13:15:20;;;;;;;2.80;1.45;;;22.50;99.90;;;;;;4916506;29;20206;-70
2021/09/25 13:17:48;;;;;;;2.20;1.40;;;22.60;99.90;;;;;;4916569;29;20320;-70
2021/09/25 13:20:16;;;;;;;1.65;1.50;;;22.60;99.90;;;;;;4916431;29;20237;-70
2021/09/25 13:22:44;;;;;;;1.45;1.08;;;22.70;99.90;;;;;;4916419;29;20544;-71
2021/09/25 13:25:12;;;;;;;2.15;1.10;;;22.50;99.90;;;;;;4916417;29;20210;-70
2021/09/25 13:27:40;;;;;;;1.92;1.33;;;22.60;99.90;;;;;;4916497;29;20704;-70
2021/09/25 13:30:08;;;;;;;1.58;1.15;;;22.60;99.90;;;;;;4916301;29;20217;-70
2021/09/25 13:32:35;;;;;;;2.28;1.58;;;22.60;99.90;;;;;;4914992;29;20209;-70
2021/09/25 13:35:02;;;;;;;1.35;1.13;;;22.60;99.90;;;;;;4922988;29;20215;-71
2021/09/25 13:37:29;;;;;;;3.15;1.42;;;22.50;99.90;;;;;;4947465;29;20729;-74
2021/09/25 13:39:57;;;;;;;1.35;1.00;;;22.60;99.90;;;;;;4944117;29;20584;-73
2021/09/25 13:42:24;;;;;;;2.20;1.13;;;22.70;99.90;;;;;;4935143;29;20220;-74
2021/09/25 13:44:52;;;;;;;1.33;1.05;;;22.80;99.90;;;;;;4917021;29;20209;-73
2021/09/25 13:47:20;;;;;;;1.60;1.15;;;22.80;99.90;;;;;;4920297;29;20233;-73
2021/09/25 13:49:47;;;;;;;1.98;1.13;;;22.90;99.90;;;;;;4919576;29;20640;-72
2021/09/25 13:52:14;;;;;;;1.10;1.00;;;22.50;99.90;;;;;;4930332;29;20213;-74
2021/09/25 13:54:42;;;;;;;1.85;1.40;;;22.30;99.90;;;;;;4921057;29;20206;-74
2021/09/25 13:57:09;;;;;;;2.65;1.27;;;22.20;99.90;;;;;;4919589;29;20233;-72
2021/09/25 13:59:37;;;;;;;2.78;1.30;;;22.30;99.90;;;;;;4919574;29;20233;-76
2021/09/25 14:02:06;;;;;;;2.00;1.25;;;22.20;99.90;;;;;;4919447;29;20677;-74
2021/09/25 14:04:34;;;;;;;1.23;0.80;;;22.40;99.90;;;;;;4919458;29;20209;-79
2021/09/25 14:07:01;;;;;;;3.33;1.25;;;22.30;99.90;;;;;;4919439;29;20234;-72
2021/09/25 14:09:32;;;;;;;1.35;1.00;;;22.20;99.90;;;;;;4919340;29;20669;-75
2021/09/25 14:11:59;;;;;;;1.95;1.20;;;22.30;99.90;;;;;;4919550;29;20206;-75
2021/09/25 14:14:26;;;;;;;2.08;1.23;;;22.30;99.90;;;;;;4918747;29;20209;-71
2021/09/25 14:16:53;;;;;;;2.20;1.38;;;22.40;99.90;;;;;;4918906;29;20329;-74
2021/09/25 14:19:21;;;;;;;1.27;0.98;;;22.40;99.90;;;;;;4919310;29;20233;-71
2021/09/25 14:21:48;;;;;;;2.00;1.20;;;22.50;99.90;;;;;;4919328;29;20316;-72
2021/09/25 14:24:14;;;;;;;2.28;1.38;;;22.70;99.90;;;;;;4918638;29;20210;-72
2021/09/25 14:26:41;;;;;;;2.75;1.30;;;22.80;99.90;;;;;;4918773;29;20735;-74
2021/09/25 14:29:08;;;;;;;2.30;1.38;;;22.50;99.90;;;;;;4932650;29;20675;-74
2021/09/25 14:31:36;;;;;;;3.22;1.60;;;22.30;99.90;;;;;;4920117;29;20209;-74
2021/09/25 14:34:04;;;;;;;2.05;1.23;;;22.40;99.90;;;;;;4918718;29;20206;-71
2021/09/25 14:36:32;;;;;;;2.25;1.13;;;22.40;99.90;;;;;;4919068;29;20273;-75
2021/09/25 14:38:59;;;;;;;1.52;1.15;;;22.50;99.90;;;;;;4918987;29;20328;-76
2021/09/25 14:41:26;;;;;;;1.60;1.10;;;22.60;99.90;;;;;;4918954;29;20511;-75
2021/09/25 14:43:53;;;;;;;1.80;1.20;;;22.50;99.90;;;;;;4918828;29;20312;-74
2021/09/25 14:46:19;;;;;;;2.30;1.35;;;22.40;99.90;;;;;;4918385;29;20217;-74
2021/09/25 14:48:48;;;;;;;2.88;1.20;;;22.50;99.90;;;;;;4918782;29;20215;-75
2021/09/25 14:51:15;;;;;;;2.28;1.27;;;22.60;99.90;;;;;;4918623;29;20230;-75
2021/09/25 14:53:43;;;;;;;3.53;1.20;;;22.60;99.90;;;;;;4918457;29;20214;-73
2021/09/25 14:56:10;;;;;;;2.08;1.30;;;22.60;99.90;;;;;;4918313;29;20214;-73
